Time;durP1;ratioP1;P1;durP2;ratioP2;P2;SDS_P1;SDS_P2;PMS_P1;PMS_P2;Temp;Humidity;BMP_temperature;BMP_pressure;BME280_temperature;BME280_humidity;BME280_pressure;Samples;Min_cycle;Max_cycle;Signal;HPM_P1;HPM_P2
2022/08/11 00:01:05;;;;;;;1055.05;966.10;;;24.50;78.20;;;;;;4990720;28;20208;-82
2022/08/11 00:03:33;;;;;;;1068.07;978.65;;;24.40;78.20;;;;;;4990886;28;20204;-82
2022/08/11 00:06:02;;;;;;;1049.88;961.20;;;24.40;78.20;;;;;;4989796;28;20239;-82
2022/08/11 00:08:31;;;;;;;1048.55;960.03;;;24.40;78.30;;;;;;4990752;28;20212;-82
2022/08/11 00:11:00;;;;;;;1057.07;967.95;;;24.40;78.40;;;;;;4997312;28;20204;-82
2022/08/11 00:13:33;;;;;;;1055.35;966.28;;;24.30;78.30;;;;;;4998334;28;20203;-81
2022/08/11 00:16:01;;;;;;;1043.47;954.95;;;24.30;78.40;;;;;;4993546;28;20224;-82
2022/08/11 00:18:30;;;;;;;1057.10;968.15;;;24.30;78.40;;;;;;4997542;28;20704;-81
2022/08/11 00:20:59;;;;;;;1060.45;971.28;;;24.30;78.50;;;;;;4999841;28;20580;-81
2022/08/11 00:23:28;;;;;;;1055.47;966.40;;;24.30;78.50;;;;;;5005836;28;20715;-82
2022/08/11 00:25:55;;;;;;;1054.25;965.33;;;24.30;78.60;;;;;;4994936;28;20216;-83
2022/08/11 00:28:30;;;;;;;1041.50;953.00;;;24.20;78.50;;;;;;4990468;28;20197;-82
2022/08/11 00:30:58;;;;;;;1048.25;959.42;;;24.20;78.60;;;;;;4990918;28;20325;-82
2022/08/11 00:33:33;;;;;;;1057.30;968.08;;;24.20;78.70;;;;;;4995587;28;20200;-82
2022/08/11 00:36:01;;;;;;;1056.90;967.85;;;24.20;78.80;;;;;;4993832;28;20196;-82
2022/08/11 00:38:33;;;;;;;1052.03;963.00;;;24.20;78.80;;;;;;4993956;28;20533;-82
2022/08/11 00:41:08;;;;;;;1049.10;960.25;;;24.20;78.80;;;;;;4997623;28;20205;-82
2022/08/11 00:43:50;;;;;;;1044.18;955.45;;;24.10;78.80;;;;;;4998093;28;20198;-82
2022/08/11 00:46:26;;;;;;;1036.10;947.67;;;24.10;78.90;;;;;;4988003;28;20647;-82
2022/08/11 00:49:03;;;;;;;1047.68;958.92;;;24.10;79.00;;;;;;4992298;28;20197;-82
2022/08/11 00:51:52;;;;;;;1039.15;950.60;;;24.10;79.00;;;;;;4997179;28;20216;-82
2022/08/11 00:54:41;;;;;;;1040.75;952.20;;;24.00;78.90;;;;;;4996620;28;20241;-82
2022/08/11 00:57:36;;;;;;;1038.15;949.78;;;24.00;79.00;;;;;;4992692;28;20193;-82
2022/08/11 01:00:14;;;;;;;1041.60;952.88;;;24.00;79.10;;;;;;4997876;28;20215;-82
2022/08/11 01:03:18;;;;;;;1049.18;960.35;;;23.90;79.00;;;;;;4997472;28;20201;-81
2022/08/11 01:06:13;;;;;;;1044.72;956.20;;;24.00;79.10;;;;;;5008738;28;20217;-81
2022/08/11 01:09:14;;;;;;;1027.95;939.97;;;23.90;79.10;;;;;;5005990;28;20669;-81
2022/08/11 01:12:09;;;;;;;1026.63;938.63;;;23.90;79.20;;;;;;5000615;28;20584;-82
2022/08/11 01:15:15;;;;;;;1042.90;954.30;;;23.90;79.20;;;;;;4997507;28;20207;-81
2022/08/11 01:18:21;;;;;;;1028.28;939.92;;;23.90;79.20;;;;;;5008371;28;20745;-83
2022/08/11 01:21:33;;;;;;;1050.97;961.90;;;23.90;79.30;;;;;;4999818;28;20800;-80
2022/08/11 01:24:47;;;;;;;1026.45;938.22;;;23.80;79.30;;;;;;4925010;29;20838;-81
2022/08/11 01:27:34;;;;;;;1017.15;929.50;;;23.80;79.40;;;;;;5006394;28;20212;-82
2022/08/11 01:30:41;;;;;;;1043.53;954.65;;;23.80;79.50;;;;;;5012135;28;20253;-82
2022/08/11 01:33:53;;;;;;;1033.53;945.17;;;23.80;79.60;;;;;;5006607;28;20211;-81
2022/08/11 01:36:58;;;;;;;1028.05;939.78;;;23.70;79.70;;;;;;4981878;28;20189;-81
2022/08/11 01:39:53;;;;;;;1027.82;939.53;;;23.70;79.80;;;;;;5014813;28;20648;-81
2022/08/11 01:45:59;;;;;;;1033.65;945.20;;;23.70;80.10;;;;;;4987593;28;20306;-82
2022/08/11 01:48:39;;;;;;;1029.22;940.88;;;23.60;80.10;;;;;;5003365;28;20666;-82
2022/08/11 01:51:19;;;;;;;1028.20;939.78;;;23.60;80.30;;;;;;5009439;28;20274;-81
2022/08/11 01:53:54;;;;;;;1034.45;945.63;;;23.60;80.40;;;;;;5006575;28;20211;-80
2022/08/11 01:56:35;;;;;;;1029.25;940.85;;;23.60;80.50;;;;;;5009350;28;20192;-81
2022/08/11 01:59:11;;;;;;;1030.50;941.63;;;23.50;80.50;;;;;;5005613;28;20678;-80
2022/08/11 02:01:53;;;;;;;1025.10;936.80;;;23.50;80.60;;;;;;5008109;28;20209;-81
2022/08/11 02:04:31;;;;;;;1034.70;946.10;;;23.50;80.70;;;;;;5008603;28;20656;-80
2022/08/11 02:07:09;;;;;;;1026.35;937.92;;;23.50;80.90;;;;;;4997636;28;20221;-81
2022/08/11 02:09:51;;;;;;;1033.70;945.15;;;23.50;81.00;;;;;;4992140;28;20907;-81
2022/08/11 02:12:30;;;;;;;1034.40;946.03;;;23.50;81.10;;;;;;4989060;28;20260;-81
2022/08/11 02:15:07;;;;;;;1031.78;943.47;;;23.50;81.20;;;;;;4992878;28;20193;-81
2022/08/11 02:17:48;;;;;;;1023.83;935.67;;;23.40;81.10;;;;;;4992109;28;20284;-82
2022/08/11 02:26:06;;;;;;;1023.08;934.95;;;23.30;81.40;;;;;;4985646;28;20228;-81
2022/08/11 02:28:49;;;;;;;1006.05;918.65;;;23.30;81.50;;;;;;4992129;28;20198;-81
2022/08/11 02:34:20;;;;;;;1008.55;921.03;;;23.30;81.70;;;;;;5005440;28;20208;-82
2022/08/11 02:36:55;;;;;;;1026.32;938.30;;;23.30;81.90;;;;;;5011163;28;20203;-82
2022/08/11 02:39:29;;;;;;;1024.07;936.13;;;23.30;82.00;;;;;;5008130;28;20193;-82
2022/08/11 02:42:25;;;;;;;1018.63;930.55;;;23.20;82.00;;;;;;4994344;28;20200;-82
2022/08/11 02:45:12;;;;;;;1021.83;933.85;;;23.20;82.10;;;;;;5011426;28;20201;-83
2022/08/11 02:49:52;;;;;;;1016.55;928.70;;;23.20;82.20;;;;;;5007364;28;20261;-83
2022/08/11 02:50:38;;;;;;;1001.90;914.55;;;23.10;82.10;;;;;;5011156;28;20248;-82
2022/08/11 02:53:12;;;;;;;1019.55;931.70;;;23.10;82.30;;;;;;5005885;28;20209;-83
2022/08/11 02:55:53;;;;;;;1022.08;934.03;;;23.10;82.40;;;;;;5012111;28;20481;-82
2022/08/11 02:58:34;;;;;;;1004.72;917.00;;;23.10;82.50;;;;;;5009687;28;20560;-82
2022/08/11 03:01:18;;;;;;;1006.65;919.17;;;23.10;82.60;;;;;;5012212;28;20265;-82
2022/08/11 03:03:51;;;;;;;1016.97;929.03;;;23.00;82.70;;;;;;5012908;28;20196;-83
2022/08/11 03:06:28;;;;;;;1011.08;923.38;;;23.00;82.60;;;;;;5005717;28;20275;-82
2022/08/11 03:09:03;;;;;;;1003.55;916.05;;;23.00;82.80;;;;;;5011516;28;20364;-83
2022/08/11 03:17:32;;;;;;;998.88;911.63;;;22.90;82.90;;;;;;5010890;28;20267;-82
2022/08/11 03:20:23;;;;;;;1007.50;919.58;;;22.90;83.00;;;;;;4998569;28;20224;-82
2022/08/11 03:22:57;;;;;;;995.13;907.95;;;22.90;83.10;;;;;;4999620;28;20384;-83
2022/08/11 03:25:31;;;;;;;998.88;911.67;;;22.90;83.20;;;;;;5002379;28;20560;-83
2022/08/11 03:28:06;;;;;;;1011.72;923.90;;;22.90;83.20;;;;;;5000751;28;20335;-83
2022/08/11 03:30:43;;;;;;;1004.88;917.53;;;22.90;83.40;;;;;;5010563;28;20206;-83
2022/08/11 03:36:17;;;;;;;1007.60;919.95;;;22.80;83.30;;;;;;4989223;28;20331;-83
2022/08/11 03:39:01;;;;;;;990.92;903.75;;;22.80;83.40;;;;;;4991635;28;20208;-83
2022/08/11 03:41:44;;;;;;;992.40;905.33;;;22.70;83.40;;;;;;4990733;28;20197;-84
2022/08/11 03:44:27;;;;;;;1005.53;918.15;;;22.70;83.50;;;;;;4983864;28;20223;-83
2022/08/11 03:47:15;;;;;;;1007.67;920.13;;;22.70;83.50;;;;;;4989495;28;20225;-83
2022/08/11 03:50:00;;;;;;;986.92;899.88;;;22.70;83.70;;;;;;4992304;28;20216;-83
2022/08/11 03:52:38;;;;;;;968.55;882.17;;;22.60;83.60;;;;;;4992969;28;20664;-83
2022/08/11 03:55:14;;;;;;;990.33;903.25;;;22.60;83.80;;;;;;4990443;28;20201;-83
2022/08/11 03:58:16;;;;;;;996.78;909.67;;;22.60;83.80;;;;;;4990768;28;20204;-82
2022/08/11 04:01:13;;;;;;;995.00;907.90;;;22.60;83.90;;;;;;4994148;28;20201;-82
2022/08/11 04:03:57;;;;;;;985.85;899.08;;;22.60;83.90;;;;;;4993451;28;20270;-83
2022/08/11 04:06:49;;;;;;;968.95;882.63;;;22.60;83.90;;;;;;5003282;28;20232;-82
2022/08/11 04:09:56;;;;;;;978.53;891.97;;;22.60;83.90;;;;;;5003990;28;20207;-83
2022/08/11 04:12:45;;;;;;;970.38;883.78;;;22.50;83.90;;;;;;5005748;28;20200;-82
2022/08/11 04:16:01;;;;;;;966.72;880.38;;;22.50;84.00;;;;;;5001215;28;20193;-83
2022/08/11 04:19:05;;;;;;;989.55;902.53;;;22.50;84.00;;;;;;5005932;28;20276;-83
2022/08/11 04:22:06;;;;;;;970.30;883.95;;;22.50;84.30;;;;;;5008834;28;20188;-82
2022/08/11 04:24:50;;;;;;;966.42;880.28;;;22.40;84.00;;;;;;4992788;28;20193;-83
2022/08/11 04:27:50;;;;;;;978.35;891.88;;;22.40;84.10;;;;;;5011932;28;20220;-83
2022/08/11 04:30:27;;;;;;;971.72;885.35;;;22.40;84.30;;;;;;5010172;28;20750;-83
2022/08/11 04:33:33;;;;;;;987.80;900.90;;;22.40;84.20;;;;;;5003700;28;20207;-82
2022/08/11 04:36:15;;;;;;;967.33;881.10;;;22.40;84.40;;;;;;5005485;28;20243;-83
2022/08/11 04:39:04;;;;;;;971.58;885.25;;;22.30;84.40;;;;;;4999561;28;20201;-82
2022/08/11 04:45:12;;;;;;;977.42;890.75;;;22.30;84.50;;;;;;4999765;28;20227;-82
2022/08/11 05:03:23;;;;;;;952.40;866.55;;;22.20;85.00;;;;;;4993460;28;20231;-82
2022/08/11 05:06:27;;;;;;;956.20;870.42;;;22.20;85.10;;;;;;4991391;28;20197;-82
2022/08/11 05:09:13;;;;;;;954.72;868.83;;;22.20;85.30;;;;;;5007260;28;20294;-82
2022/08/11 05:12:09;;;;;;;969.60;883.47;;;22.20;85.30;;;;;;5006960;28;20675;-81
2022/08/11 05:34:53;;;;;;;972.55;886.25;;;22.10;86.20;;;;;;4975164;28;20229;-82
2022/08/11 05:37:25;;;;;;;955.50;869.53;;;22.10;86.30;;;;;;4965690;29;20201;-82
2022/08/11 05:56:44;;;;;;;993.80;906.53;;;23.00;83.50;;;;;;4953263;28;20363;-76
2022/08/11 05:59:17;;;;;;;993.60;906.38;;;23.30;82.70;;;;;;4968357;28;20201;-77
2022/08/11 06:01:46;;;;;;;1008.47;920.85;;;23.50;82.00;;;;;;4991957;28;20638;-76
2022/08/11 06:04:20;;;;;;;1026.32;938.30;;;23.70;81.30;;;;;;4992856;28;20621;-77
2022/08/11 06:06:51;;;;;;;1033.05;944.67;;;23.90;81.30;;;;;;4992227;28;20231;-76
2022/08/11 06:09:25;;;;;;;1028.22;939.95;;;24.10;79.90;;;;;;4991847;28;20196;-78
2022/08/11 06:11:55;;;;;;;1026.32;938.08;;;24.30;79.40;;;;;;4998228;28;20770;-77
2022/08/11 06:14:24;;;;;;;1040.22;951.80;;;24.40;78.80;;;;;;4995937;28;20215;-76
2022/08/11 06:16:55;;;;;;;1050.22;961.50;;;24.50;78.20;;;;;;4994620;28;20205;-77
2022/08/11 06:19:30;;;;;;;1051.68;962.83;;;24.60;77.80;;;;;;4998114;28;20225;-77
2022/08/11 06:21:57;;;;;;;1052.13;963.22;;;24.80;77.50;;;;;;4999114;28;20208;-78
2022/08/11 06:24:24;;;;;;;1063.07;973.78;;;24.90;77.10;;;;;;4989119;28;20208;-79
2022/08/11 06:26:52;;;;;;;1051.18;962.20;;;25.00;76.70;;;;;;4990768;28;20228;-78
2022/08/11 06:29:20;;;;;;;1078.82;988.60;;;25.10;76.20;;;;;;4993604;28;20197;-78
2022/08/11 06:31:55;;;;;;;1070.85;981.33;;;25.20;76.00;;;;;;4988239;28;20569;-78
2022/08/11 06:34:40;;;;;;;1078.10;988.38;;;25.30;75.60;;;;;;4988779;28;20200;-79
2022/08/11 06:37:20;;;;;;;1073.43;983.80;;;25.40;75.10;;;;;;4985032;28;20252;-78
2022/08/11 06:39:57;;;;;;;1085.88;994.33;;;25.50;74.80;;;;;;4993238;28;20201;-78
2022/08/11 06:42:47;;;;;;;1079.22;989.42;;;25.60;74.50;;;;;;4988017;28;20272;-79
2022/08/11 06:45:26;;;;;;;1076.35;986.58;;;25.70;74.30;;;;;;4988494;28;20220;-79
2022/08/11 06:47:55;;;;;;;1072.07;982.50;;;25.80;73.80;;;;;;4994146;28;20217;-79
2022/08/11 06:53:11;;;;;;;1087.88;994.97;;;25.90;73.30;;;;;;4991372;28;20969;-79
2022/08/11 07:01:20;;;;;;;1097.20;999.40;;;26.20;72.70;;;;;;4987143;28;20276;-80
2022/08/11 07:03:56;;;;;;;1111.57;999.90;;;26.30;72.70;;;;;;4991145;28;20635;-81
2022/08/11 07:06:38;;;;;;;1099.60;999.90;;;26.30;72.30;;;;;;4989857;28;20229;-81
2022/08/11 07:15:42;;;;;;;1108.73;999.90;;;26.60;70.90;;;;;;4986207;28;20459;-81
2022/08/11 07:29:33;;;;;;;1120.20;999.90;;;26.90;68.90;;;;;;4987833;28;20539;-79
2022/08/11 07:32:08;;;;;;;1128.90;999.90;;;26.90;69.00;;;;;;4991519;28;20464;-79
2022/08/11 07:34:40;;;;;;;1131.30;999.90;;;27.00;68.80;;;;;;4988398;28;20464;-78
2022/08/11 07:37:16;;;;;;;1156.38;999.90;;;27.10;65.30;;;;;;5000595;28;20445;-78
2022/08/11 07:39:44;;;;;;;1127.93;999.90;;;27.10;67.60;;;;;;4996070;28;20208;-79
2022/08/11 07:42:13;;;;;;;1129.50;999.90;;;27.10;67.00;;;;;;4992761;28;20985;-79
2022/08/11 07:52:56;;;;;;;1130.07;999.90;;;27.40;67.20;;;;;;4994451;28;20443;-79
2022/08/11 07:55:25;;;;;;;1141.80;999.90;;;27.40;67.20;;;;;;5002026;28;20452;-80
2022/08/11 08:19:55;;;;;;;1152.67;999.90;;;28.00;65.60;;;;;;4991466;28;20572;-79
2022/08/11 08:22:22;;;;;;;1173.67;999.90;;;28.00;64.80;;;;;;4991996;28;20445;-78
2022/08/11 08:24:51;;;;;;;1153.57;999.90;;;28.10;65.00;;;;;;4997898;28;20443;-79
2022/08/11 08:27:20;;;;;;;1165.00;999.90;;;28.10;65.60;;;;;;5002549;28;20483;-79
2022/08/11 08:32:39;;;;;;;1166.27;999.90;;;28.20;65.00;;;;;;4995520;28;20440;-79
2022/08/11 08:35:07;;;;;;;1158.63;999.90;;;28.20;64.60;;;;;;4993569;28;20441;-79
2022/08/11 08:37:34;;;;;;;1167.00;999.90;;;28.20;64.50;;;;;;4991938;28;21025;-79
2022/08/11 08:40:02;;;;;;;1171.33;999.90;;;28.30;65.30;;;;;;4984941;28;20444;-80
2022/08/11 08:42:30;;;;;;;1176.87;999.90;;;28.30;65.20;;;;;;4987112;28;20494;-79
2022/08/11 08:45:04;;;;;;;1172.83;999.90;;;28.30;65.20;;;;;;4998944;28;20456;-79
2022/08/11 08:47:35;;;;;;;1179.70;999.90;;;28.30;65.50;;;;;;5000490;28;20472;-79
2022/08/11 08:50:05;;;;;;;1181.97;999.90;;;28.30;65.00;;;;;;5003193;28;20467;-80
2022/08/11 08:52:40;;;;;;;1171.50;999.90;;;28.30;65.30;;;;;;5003378;28;20433;-80
2022/08/11 08:55:12;;;;;;;1188.43;999.90;;;28.40;65.00;;;;;;5008902;28;20471;-79
2022/08/11 08:57:42;;;;;;;1173.53;999.90;;;28.30;64.70;;;;;;5000928;28;20855;-79
2022/08/11 09:00:10;;;;;;;1178.23;999.90;;;28.30;63.70;;;;;;5008797;28;20756;-78
2022/08/11 09:02:37;;;;;;;1187.47;999.90;;;28.40;64.80;;;;;;5006928;28;20860;-79
2022/08/11 09:05:06;;;;;;;1179.27;999.90;;;28.30;64.70;;;;;;5008445;28;20480;-80
2022/08/11 09:07:34;;;;;;;1172.87;999.90;;;28.40;64.60;;;;;;4993250;28;20571;-80
2022/08/11 09:10:01;;;;;;;1166.67;999.90;;;28.40;63.80;;;;;;4995507;28;20468;-79
2022/08/11 09:12:32;;;;;;;1172.63;999.90;;;28.40;63.70;;;;;;5005342;28;20453;-79
2022/08/11 09:15:03;;;;;;;1171.57;999.90;;;28.40;64.80;;;;;;5002555;28;20881;-79
2022/08/11 09:17:33;;;;;;;1183.60;999.90;;;28.40;64.80;;;;;;5002442;28;20426;-80
2022/08/11 09:20:05;;;;;;;1182.80;999.90;;;28.40;64.90;;;;;;4997486;28;20518;-80
2022/08/11 09:28:11;;;;;;;1167.73;999.90;;;28.30;64.80;;;;;;4995359;28;20437;-79
2022/08/11 09:30:42;;;;;;;1181.37;999.90;;;28.30;65.20;;;;;;4991485;28;20790;-79
2022/08/11 09:33:11;;;;;;;1169.43;999.90;;;28.30;65.10;;;;;;5003879;28;20469;-79
2022/08/11 09:35:41;;;;;;;1166.30;999.90;;;28.30;63.50;;;;;;4997718;28;20468;-79
2022/08/11 09:40:59;;;;;;;1175.37;999.90;;;28.20;64.30;;;;;;4977793;28;20450;-79
2022/08/11 09:46:14;;;;;;;1151.27;999.90;;;28.20;63.90;;;;;;5001122;28;20432;-80
2022/08/11 09:48:44;;;;;;;1169.30;999.90;;;28.20;64.30;;;;;;5012483;28;20458;-80
2022/08/11 09:51:12;;;;;;;1178.23;999.90;;;28.20;64.30;;;;;;5001996;28;20433;-79
2022/08/11 09:53:41;;;;;;;1177.37;999.90;;;28.10;64.60;;;;;;5007850;28;20439;-79
2022/08/11 09:58:59;;;;;;;1175.50;999.90;;;28.20;65.00;;;;;;5001463;28;20458;-77
2022/08/11 10:01:31;;;;;;;1169.37;999.90;;;28.10;64.70;;;;;;5000487;28;20578;-78
2022/08/11 10:04:03;;;;;;;1175.30;999.90;;;28.10;64.00;;;;;;4999882;28;20832;-77
2022/08/11 10:09:19;;;;;;;1165.77;999.90;;;28.10;64.00;;;;;;4993882;28;20420;-79
2022/08/11 10:11:47;;;;;;;1174.70;999.90;;;28.10;64.20;;;;;;4999817;28;20519;-78
2022/08/11 10:17:06;;;;;;;1153.00;999.90;;;28.00;62.90;;;;;;5004747;28;20412;-79
2022/08/11 10:19:35;;;;;;;1165.07;999.90;;;28.00;62.50;;;;;;4993968;28;21002;-77
2022/08/11 10:27:33;;;;;;;1170.07;999.90;;;27.90;62.60;;;;;;4992752;28;20475;-79
2022/08/11 10:35:35;;;;;;;1158.63;999.90;;;27.90;61.90;;;;;;4998600;28;20507;-78
2022/08/11 10:38:02;;;;;;;1164.57;999.90;;;27.90;61.50;;;;;;5000025;28;20493;-80
2022/08/11 10:40:29;;;;;;;1156.47;999.90;;;27.90;62.30;;;;;;4993522;28;20444;-78
2022/08/11 10:43:01;;;;;;;1151.00;999.90;;;27.90;62.80;;;;;;4995840;28;20422;-78
2022/08/11 10:48:20;;;;;;;1158.10;999.90;;;27.90;62.80;;;;;;4982859;28;20472;-79
2022/08/11 10:59:07;;;;;;;1161.37;999.90;;;27.80;61.70;;;;;;4990739;28;20459;-78
2022/08/11 11:01:40;;;;;;;1147.90;999.90;;;27.80;61.60;;;;;;5001238;28;20443;-79
2022/08/11 11:04:10;;;;;;;1158.40;999.90;;;27.80;61.60;;;;;;4992648;28;20466;-79
2022/08/11 11:06:46;;;;;;;1148.50;999.90;;;27.80;62.60;;;;;;4997987;28;20832;-81
2022/08/11 11:09:16;;;;;;;1145.90;999.90;;;27.80;62.60;;;;;;4997151;28;20495;-80
2022/08/11 11:20:18;;;;;;;1153.07;999.90;;;27.80;61.70;;;;;;4990462;28;20525;-80
2022/08/11 11:22:51;;;;;;;1141.97;999.90;;;27.80;60.80;;;;;;4992069;28;20529;-80
2022/08/11 11:25:29;;;;;;;1138.67;999.90;;;27.80;62.00;;;;;;4990523;28;20456;-78
2022/08/11 11:28:18;;;;;;;1148.77;999.90;;;27.80;61.30;;;;;;4983373;28;20472;-80
2022/08/11 11:30:57;;;;;;;1142.77;999.90;;;27.70;61.60;;;;;;4991919;28;20493;-79
2022/08/11 11:33:38;;;;;;;1153.20;999.90;;;27.70;62.10;;;;;;4991561;28;20957;-80
2022/08/11 11:36:15;;;;;;;1150.70;999.90;;;27.70;62.20;;;;;;4984901;28;20487;-79
2022/08/11 11:38:43;;;;;;;1147.17;999.90;;;27.70;62.00;;;;;;4991667;28;20467;-79
2022/08/11 11:41:25;;;;;;;1133.17;999.90;;;27.70;62.30;;;;;;4991954;28;20436;-81
2022/08/11 11:43:54;;;;;;;1150.57;999.90;;;27.70;61.90;;;;;;4979617;28;20460;-80
2022/08/11 11:46:21;;;;;;;1147.00;999.90;;;27.70;62.00;;;;;;4992837;28;20930;-78
2022/08/11 11:48:50;;;;;;;1141.67;999.90;;;27.70;62.00;;;;;;4991326;28;20979;-80
2022/08/11 11:51:16;;;;;;;1159.33;999.90;;;27.70;61.80;;;;;;4991393;28;20456;-80
2022/08/11 11:53:44;;;;;;;1150.13;999.90;;;27.70;62.20;;;;;;4991120;28;20464;-79
2022/08/11 11:56:12;;;;;;;1137.47;999.90;;;27.70;61.60;;;;;;4991720;28;20504;-79
2022/08/11 12:01:25;;;;;;;1134.13;999.90;;;27.70;62.00;;;;;;4991860;28;20782;-79
2022/08/11 12:03:56;;;;;;;1139.70;999.90;;;27.70;61.80;;;;;;4992996;28;20839;-80
2022/08/11 12:06:26;;;;;;;1151.57;999.90;;;27.70;62.20;;;;;;4983213;28;20467;-80
2022/08/11 12:08:55;;;;;;;1141.73;999.90;;;27.70;61.80;;;;;;4990261;28;20498;-79
2022/08/11 12:14:10;;;;;;;1138.83;999.90;;;27.60;61.90;;;;;;4989767;28;20465;-78
2022/08/11 12:16:39;;;;;;;1150.10;999.90;;;27.60;62.00;;;;;;4989239;28;20551;-79
2022/08/11 12:19:10;;;;;;;1150.50;999.90;;;27.60;61.90;;;;;;4984132;28;20443;-79
2022/08/11 12:27:19;;;;;;;1148.33;999.90;;;27.60;61.80;;;;;;4989070;28;20880;-80
2022/08/11 12:27:22;;;;;;;1141.20;999.90;;;27.60;60.20;;;;;;4984477;28;20429;-79
2022/08/11 12:29:51;;;;;;;1141.30;999.90;;;27.60;60.60;;;;;;4991506;28;20459;-79
2022/08/11 12:32:19;;;;;;;1132.30;999.90;;;27.60;61.30;;;;;;4988298;28;20452;-78
2022/08/11 12:34:48;;;;;;;1152.17;999.90;;;27.50;61.40;;;;;;4991469;28;20463;-80
2022/08/11 12:37:22;;;;;;;1156.13;999.90;;;27.50;61.40;;;;;;4990624;28;20448;-79
2022/08/11 12:45:29;;;;;;;1144.27;999.90;;;27.50;61.10;;;;;;4986835;28;20454;-79
2022/08/11 12:53:51;;;;;;;1151.27;999.90;;;27.50;60.70;;;;;;4988696;28;21043;-79
2022/08/11 13:04:58;;;;;;;1139.43;999.90;;;27.50;60.30;;;;;;4991061;28;20540;-79
2022/08/11 13:07:27;;;;;;;1141.40;999.90;;;27.50;60.20;;;;;;4990067;28;20767;-80
2022/08/11 13:09:54;;;;;;;1140.37;999.90;;;27.50;60.40;;;;;;4993119;28;20470;-82
2022/08/11 13:15:10;;;;;;;1122.03;999.90;;;27.40;60.10;;;;;;4992466;28;20439;-79
2022/08/11 13:17:38;;;;;;;1139.03;999.90;;;27.50;59.60;;;;;;4992833;28;20466;-80
2022/08/11 13:20:08;;;;;;;1147.13;999.90;;;27.50;59.30;;;;;;4986903;28;20835;-81
2022/08/11 13:22:37;;;;;;;1131.60;999.90;;;27.40;59.10;;;;;;4989902;28;20818;-82
2022/08/11 13:25:05;;;;;;;1137.67;999.90;;;27.40;59.20;;;;;;4986718;28;20471;-82
2022/08/11 13:27:33;;;;;;;1144.17;999.90;;;27.50;59.50;;;;;;4989998;28;20449;-82
2022/08/11 13:32:46;;;;;;;1134.23;999.90;;;27.50;59.70;;;;;;4989920;28;20442;-79
2022/08/11 13:35:14;;;;;;;1141.17;999.90;;;27.40;59.50;;;;;;4991375;28;20471;-81
2022/08/11 13:37:45;;;;;;;1123.23;999.90;;;27.40;59.60;;;;;;4992475;28;20431;-81
2022/08/11 13:40:14;;;;;;;1136.23;999.90;;;27.50;59.30;;;;;;4992401;28;20470;-80
2022/08/11 13:42:41;;;;;;;1143.23;999.90;;;27.50;58.90;;;;;;4992506;28;20972;-81
2022/08/11 13:45:09;;;;;;;1138.20;999.90;;;27.50;58.50;;;;;;4992149;28;20460;-82
2022/08/11 13:47:37;;;;;;;1129.53;999.90;;;27.50;59.10;;;;;;4991698;28;20474;-80
2022/08/11 13:50:06;;;;;;;1134.70;999.90;;;27.50;59.30;;;;;;4990928;28;20479;-80
2022/08/11 13:52:34;;;;;;;1131.67;999.90;;;27.50;59.20;;;;;;4990659;28;20474;-81
2022/08/11 13:55:02;;;;;;;1140.30;999.90;;;27.50;59.00;;;;;;4991766;28;20463;-81
2022/08/11 13:57:33;;;;;;;1144.13;999.90;;;27.50;58.80;;;;;;4985587;28;20461;-81
2022/08/11 14:00:09;;;;;;;1145.33;999.90;;;27.50;58.70;;;;;;4992060;28;20998;-81
2022/08/11 14:02:39;;;;;;;1145.63;999.90;;;27.50;58.90;;;;;;4992284;28;20475;-81
2022/08/11 14:05:11;;;;;;;1140.87;999.90;;;27.50;58.80;;;;;;4987905;28;20955;-81
2022/08/11 14:07:42;;;;;;;1142.67;999.90;;;27.50;58.40;;;;;;4989424;28;20435;-82
2022/08/11 14:10:13;;;;;;;1141.80;999.90;;;27.50;58.70;;;;;;4992094;28;20460;-82
2022/08/11 14:15:31;;;;;;;1138.67;999.90;;;27.50;59.40;;;;;;4990972;28;20438;-81
2022/08/11 14:18:03;;;;;;;1150.40;999.90;;;27.50;58.50;;;;;;4990999;28;20472;-80
2022/08/11 14:22:05;;;;;;;1142.73;999.90;;;27.50;58.70;;;;;;4987941;28;20546;-80
2022/08/11 14:23:22;;;;;;;1150.03;999.90;;;27.50;58.00;;;;;;4989988;28;20435;-81
2022/08/11 14:28:35;;;;;;;1147.10;999.90;;;27.50;57.50;;;;;;4988816;28;20465;-81
2022/08/11 14:31:05;;;;;;;1133.60;999.90;;;27.50;57.90;;;;;;4990157;28;20479;-82
2022/08/11 14:33:33;;;;;;;1143.80;999.90;;;27.50;58.20;;;;;;4991219;28;20819;-81
2022/08/11 14:36:01;;;;;;;1150.37;999.90;;;27.50;58.20;;;;;;4990281;28;20483;-80
2022/08/11 14:38:29;;;;;;;1144.97;999.90;;;27.50;58.30;;;;;;4988580;28;20439;-82
2022/08/11 14:49:13;;;;;;;1137.93;999.90;;;27.50;57.80;;;;;;4985755;28;20530;-81
2022/08/11 14:51:42;;;;;;;1141.50;999.90;;;27.50;57.50;;;;;;4988575;28;21006;-81
2022/08/11 14:56:56;;;;;;;1153.10;999.90;;;27.50;57.70;;;;;;4989233;28;21008;-82
2022/08/11 14:59:23;;;;;;;1153.83;999.90;;;27.60;57.30;;;;;;4990500;28;20484;-81
2022/08/11 15:04:36;;;;;;;1142.60;999.90;;;27.60;57.20;;;;;;4989001;28;20906;-82
2022/08/11 15:07:03;;;;;;;1150.63;999.90;;;27.60;57.90;;;;;;4987181;28;20463;-81
2022/08/11 15:09:30;;;;;;;1144.80;999.90;;;27.60;57.80;;;;;;4990419;28;20486;-82
2022/08/11 15:12:08;;;;;;;1157.27;999.90;;;27.50;57.40;;;;;;4988967;28;20439;-81
2022/08/11 15:17:21;;;;;;;1140.23;999.90;;;27.60;57.90;;;;;;4989371;28;20485;-81
2022/08/11 15:25:16;;;;;;;1141.77;999.90;;;27.50;57.30;;;;;;4987611;28;20429;-81
2022/08/11 15:38:57;;;;;;;1140.00;999.90;;;27.60;57.50;;;;;;4989059;28;20941;-80
2022/08/11 15:47:03;;;;;;;1144.00;999.90;;;27.60;56.70;;;;;;4988247;28;20591;-81
2022/08/11 15:49:34;;;;;;;1138.00;999.90;;;27.60;56.50;;;;;;4987742;28;20492;-82
2022/08/11 15:52:06;;;;;;;1155.70;999.90;;;27.60;56.60;;;;;;4983809;28;20970;-81
2022/08/11 15:54:35;;;;;;;1146.43;999.90;;;27.60;57.30;;;;;;4991678;28;20494;-81
2022/08/11 15:57:05;;;;;;;1133.73;999.90;;;27.60;56.80;;;;;;4990886;28;20455;-81
2022/08/11 16:05:13;;;;;;;1148.87;999.90;;;27.60;56.90;;;;;;4988566;28;20447;-81
2022/08/11 16:07:47;;;;;;;1156.37;999.90;;;27.60;57.00;;;;;;4988200;28;20434;-82
2022/08/11 16:10:20;;;;;;;1142.80;999.90;;;27.60;57.00;;;;;;4984659;28;21069;-79
2022/08/11 16:16:13;;;;;;;1135.17;999.90;;;27.60;56.60;;;;;;4991759;28;20452;-86
2022/08/11 16:18:45;;;;;;;1141.40;999.90;;;27.70;56.20;;;;;;4986915;28;20548;-82
2022/08/11 16:21:15;;;;;;;1139.87;999.90;;;27.60;56.40;;;;;;4988393;28;20958;-81
2022/08/11 16:23:47;;;;;;;1155.30;999.90;;;27.70;56.60;;;;;;4990388;28;20448;-81
2022/08/11 16:26:17;;;;;;;1139.10;999.90;;;27.70;56.60;;;;;;4989892;28;20495;-80
2022/08/11 16:28:45;;;;;;;1138.73;999.90;;;27.70;56.60;;;;;;4988120;28;20973;-80
2022/08/11 16:31:14;;;;;;;1149.40;999.90;;;27.70;56.90;;;;;;4990694;28;20456;-82
2022/08/11 16:33:42;;;;;;;1151.47;999.90;;;27.70;57.00;;;;;;4990437;28;20529;-81
2022/08/11 16:38:56;;;;;;;1158.60;999.90;;;27.70;56.90;;;;;;4994946;28;21013;-81
2022/08/11 16:46:59;;;;;;;1132.83;999.90;;;27.60;56.40;;;;;;4982579;28;21186;-81
2022/08/11 16:49:31;;;;;;;1149.80;999.90;;;27.60;56.50;;;;;;4992716;28;20483;-82
2022/08/11 16:52:02;;;;;;;1138.67;999.90;;;27.70;56.80;;;;;;4992781;28;20447;-82
2022/08/11 16:54:30;;;;;;;1151.27;999.90;;;27.60;57.00;;;;;;4990328;28;20457;-81
2022/08/11 16:59:12;;;;;;;1140.50;999.90;;;27.60;57.20;;;;;;4992881;28;20496;-81
2022/08/11 16:59:46;;;;;;;1140.63;999.90;;;27.60;56.90;;;;;;4992093;28;20502;-81
2022/08/11 17:13:07;;;;;;;1143.37;999.90;;;27.70;57.30;;;;;;4992602;28;20427;-80
2022/08/11 17:13:36;;;;;;;1150.33;999.90;;;27.70;57.80;;;;;;4993666;28;20510;-81
2022/08/11 17:16:07;;;;;;;1151.73;999.90;;;27.70;57.80;;;;;;4992712;28;20777;-81
2022/08/11 17:18:41;;;;;;;1135.53;999.90;;;27.70;57.70;;;;;;4993215;28;20486;-81
2022/08/11 17:21:12;;;;;;;1152.67;999.90;;;27.70;58.20;;;;;;4993672;28;20451;-81
2022/08/11 17:23:46;;;;;;;1156.70;999.90;;;27.70;57.40;;;;;;4994288;28;20430;-80
2022/08/11 17:26:16;;;;;;;1152.43;999.90;;;27.70;57.00;;;;;;4992827;28;21057;-80
2022/08/11 17:28:44;;;;;;;1146.50;999.90;;;27.70;57.30;;;;;;4992534;28;20459;-81
2022/08/11 17:36:47;;;;;;;1147.20;999.90;;;27.70;57.50;;;;;;4992584;28;20409;-81